Hazelwood, Pennsylvania
Current Conditions -  °F | °C
As of 1:22 AM on Friday 19 Dec 2014 (Local Time) from KAGC Reporting Station
Overcast Overcast  
Wind Chill: 17°   Ceiling: 1300
Heat Index: 27°   Visibility: 8mi
Dew Point: 20°   Wind: 12mph
Humidity: 75%   Direction: 250°WSW
Pressure: 30.12"   Gusts: NA
Location:  40.4147°N, 79.9411°W
Report Text: KAGC 190622Z 25010KT 8SM BKN013 OVC020 M03/M07 A3012 RMK AO2 T10281067
Loading
Personal Weather Stations






























Interactive Weather Map New forecast layout! Learn more

10-Day Weather Forecast

Advertisements
Track Severe Weather on mobile